sensor_id;sensor_type;location;lat;lon;timestamp;temperature;humidity
76785;SHT30;66893;44.316;0.092;2023-03-29T00:01:06;20.26;42.70
76785;SHT30;66893;44.316;0.092;2023-03-29T00:03:34;20.26;42.73
76785;SHT30;66893;44.316;0.092;2023-03-29T00:06:00;20.24;42.76
76785;SHT30;66893;44.316;0.092;2023-03-29T00:08:30;20.23;42.75
76785;SHT30;66893;44.316;0.092;2023-03-29T00:10:56;20.19;42.72
76785;SHT30;66893;44.316;0.092;2023-03-29T00:13:24;20.15;42.87
76785;SHT30;66893;44.316;0.092;2023-03-29T00:15:51;20.13;42.85
76785;SHT30;66893;44.316;0.092;2023-03-29T00:18:17;20.12;42.86
76785;SHT30;66893;44.316;0.092;2023-03-29T00:20:42;20.12;42.91
76785;SHT30;66893;44.316;0.092;2023-03-29T00:23:08;20.09;42.93
76785;SHT30;66893;44.316;0.092;2023-03-29T00:25:33;20.06;42.93
76785;SHT30;66893;44.316;0.092;2023-03-29T00:27:58;20.04;42.92
76785;SHT30;66893;44.316;0.092;2023-03-29T00:30:24;20.02;42.98
76785;SHT30;66893;44.316;0.092;2023-03-29T00:32:50;19.98;43.05
76785;SHT30;66893;44.316;0.092;2023-03-29T00:35:16;19.95;43.04
76785;SHT30;66893;44.316;0.092;2023-03-29T00:37:41;19.90;43.09
76785;SHT30;66893;44.316;0.092;2023-03-29T00:40:07;19.90;43.04
76785;SHT30;66893;44.316;0.092;2023-03-29T00:42:36;19.88;43.10
76785;SHT30;66893;44.316;0.092;2023-03-29T00:47:44;19.85;43.09
76785;SHT30;66893;44.316;0.092;2023-03-29T00:52:58;19.79;43.14
76785;SHT30;66893;44.316;0.092;2023-03-29T00:55:28;19.77;43.15
76785;SHT30;66893;44.316;0.092;2023-03-29T00:57:56;19.75;43.19
76785;SHT30;66893;44.316;0.092;2023-03-29T01:00:27;19.74;43.17
76785;SHT30;66893;44.316;0.092;2023-03-29T01:02:56;19.71;43.30
76785;SHT30;66893;44.316;0.092;2023-03-29T01:05:40;19.69;43.26
76785;SHT30;66893;44.316;0.092;2023-03-29T01:08:10;19.67;43.28
76785;SHT30;66893;44.316;0.092;2023-03-29T01:11:03;19.62;43.28
76785;SHT30;66893;44.316;0.092;2023-03-29T01:16:10;19.57;43.44
76785;SHT30;66893;44.316;0.092;2023-03-29T01:18:37;19.57;43.42
76785;SHT30;66893;44.316;0.092;2023-03-29T01:21:25;19.51;43.46
76785;SHT30;66893;44.316;0.092;2023-03-29T01:29:04;19.46;43.44
76785;SHT30;66893;44.316;0.092;2023-03-29T01:31:36;19.47;43.45
76785;SHT30;66893;44.316;0.092;2023-03-29T01:37:18;19.41;43.50
76785;SHT30;66893;44.316;0.092;2023-03-29T01:39:46;19.40;43.54
76785;SHT30;66893;44.316;0.092;2023-03-29T01:45:09;19.33;43.64
76785;SHT30;66893;44.316;0.092;2023-03-29T01:56:08;19.27;43.72
76785;SHT30;66893;44.316;0.092;2023-03-29T01:58:38;19.24;43.82
76785;SHT30;66893;44.316;0.092;2023-03-29T02:01:07;19.27;43.77
76785;SHT30;66893;44.316;0.092;2023-03-29T02:03:40;19.23;43.77
76785;SHT30;66893;44.316;0.092;2023-03-29T02:06:12;19.20;43.78
76785;SHT30;66893;44.316;0.092;2023-03-29T02:08:40;19.19;43.86
76785;SHT30;66893;44.316;0.092;2023-03-29T02:11:07;19.19;43.86
76785;SHT30;66893;44.316;0.092;2023-03-29T02:13:34;19.16;43.93
76785;SHT30;66893;44.316;0.092;2023-03-29T02:16:01;19.14;43.91
76785;SHT30;66893;44.316;0.092;2023-03-29T02:18:28;19.14;44.02
76785;SHT30;66893;44.316;0.092;2023-03-29T02:20:56;19.09;43.94
76785;SHT30;66893;44.316;0.092;2023-03-29T02:23:32;19.10;44.02
76785;SHT30;66893;44.316;0.092;2023-03-29T02:26:01;19.05;43.96
76785;SHT30;66893;44.316;0.092;2023-03-29T02:28:29;19.03;43.98
76785;SHT30;66893;44.316;0.092;2023-03-29T02:31:23;19.03;43.94
76785;SHT30;66893;44.316;0.092;2023-03-29T02:33:52;19.02;44.05
76785;SHT30;66893;44.316;0.092;2023-03-29T02:36:37;18.99;43.97
76785;SHT30;66893;44.316;0.092;2023-03-29T02:39:06;19.02;44.02
76785;SHT30;66893;44.316;0.092;2023-03-29T02:41:35;18.96;44.03
76785;SHT30;66893;44.316;0.092;2023-03-29T02:44:04;18.95;44.02
76785;SHT30;66893;44.316;0.092;2023-03-29T02:46:33;18.96;44.08
76785;SHT30;66893;44.316;0.092;2023-03-29T02:48:59;18.96;44.05
76785;SHT30;66893;44.316;0.092;2023-03-29T02:51:29;18.95;44.02
76785;SHT30;66893;44.316;0.092;2023-03-29T02:54:19;18.91;44.05
76785;SHT30;66893;44.316;0.092;2023-03-29T02:57:07;18.89;44.06
76785;SHT30;66893;44.316;0.092;2023-03-29T02:59:34;18.88;44.11
76785;SHT30;66893;44.316;0.092;2023-03-29T03:02:00;18.88;44.10
76785;SHT30;66893;44.316;0.092;2023-03-29T03:04:26;18.86;44.11
76785;SHT30;66893;44.316;0.092;2023-03-29T03:06:52;18.88;44.03
76785;SHT30;66893;44.316;0.092;2023-03-29T03:09:17;18.85;44.08
76785;SHT30;66893;44.316;0.092;2023-03-29T03:11:43;18.84;44.11
76785;SHT30;66893;44.316;0.092;2023-03-29T03:14:08;18.84;44.05
76785;SHT30;66893;44.316;0.092;2023-03-29T03:16:34;18.79;44.08
76785;SHT30;66893;44.316;0.092;2023-03-29T03:19:01;18.79;44.07
76785;SHT30;66893;44.316;0.092;2023-03-29T03:21:27;18.79;44.08
76785;SHT30;66893;44.316;0.092;2023-03-29T03:23:52;18.78;44.10
76785;SHT30;66893;44.316;0.092;2023-03-29T03:26:18;18.76;44.12
76785;SHT30;66893;44.316;0.092;2023-03-29T03:28:44;18.76;44.16
76785;SHT30;66893;44.316;0.092;2023-03-29T03:31:10;18.72;44.11
76785;SHT30;66893;44.316;0.092;2023-03-29T03:33:38;18.71;44.13
76785;SHT30;66893;44.316;0.092;2023-03-29T03:36:06;18.68;44.13
76785;SHT30;66893;44.316;0.092;2023-03-29T03:38:32;18.69;44.17
76785;SHT30;66893;44.316;0.092;2023-03-29T03:40:59;18.65;44.13
76785;SHT30;66893;44.316;0.092;2023-03-29T03:43:25;18.62;44.16
76785;SHT30;66893;44.316;0.092;2023-03-29T03:45:51;18.62;44.15
76785;SHT30;66893;44.316;0.092;2023-03-29T03:48:17;18.59;44.19
76785;SHT30;66893;44.316;0.092;2023-03-29T03:50:50;18.59;44.21
76785;SHT30;66893;44.316;0.092;2023-03-29T03:53:15;18.57;44.17
76785;SHT30;66893;44.316;0.092;2023-03-29T03:55:41;18.55;44.21
76785;SHT30;66893;44.316;0.092;2023-03-29T03:58:07;18.54;44.20
76785;SHT30;66893;44.316;0.092;2023-03-29T04:00:33;18.52;44.23
76785;SHT30;66893;44.316;0.092;2023-03-29T04:02:58;18.51;44.19
76785;SHT30;66893;44.316;0.092;2023-03-29T04:05:26;18.50;44.23
76785;SHT30;66893;44.316;0.092;2023-03-29T04:07:51;18.48;44.20
76785;SHT30;66893;44.316;0.092;2023-03-29T04:10:18;18.45;44.21
76785;SHT30;66893;44.316;0.092;2023-03-29T04:12:43;18.45;44.25
76785;SHT30;66893;44.316;0.092;2023-03-29T04:15:09;18.43;44.25
76785;SHT30;66893;44.316;0.092;2023-03-29T04:17:36;18.43;44.20
76785;SHT30;66893;44.316;0.092;2023-03-29T04:20:02;18.40;44.23
76785;SHT30;66893;44.316;0.092;2023-03-29T04:22:34;18.37;44.27
76785;SHT30;66893;44.316;0.092;2023-03-29T04:25:00;18.37;44.25
76785;SHT30;66893;44.316;0.092;2023-03-29T04:27:26;18.34;44.26
76785;SHT30;66893;44.316;0.092;2023-03-29T04:29:51;18.31;44.22
76785;SHT30;66893;44.316;0.092;2023-03-29T04:32:16;18.33;44.23
76785;SHT30;66893;44.316;0.092;2023-03-29T04:34:42;18.33;44.27
76785;SHT30;66893;44.316;0.092;2023-03-29T04:37:07;18.30;44.30
76785;SHT30;66893;44.316;0.092;2023-03-29T04:39:37;18.29;44.34
76785;SHT30;66893;44.316;0.092;2023-03-29T04:42:03;18.29;44.32
76785;SHT30;66893;44.316;0.092;2023-03-29T04:44:29;18.26;44.34
76785;SHT30;66893;44.316;0.092;2023-03-29T04:47:00;18.26;44.32
76785;SHT30;66893;44.316;0.092;2023-03-29T04:49:26;18.23;44.33
76785;SHT30;66893;44.316;0.092;2023-03-29T04:51:52;18.22;44.34
76785;SHT30;66893;44.316;0.092;2023-03-29T04:54:20;18.20;44.38
76785;SHT30;66893;44.316;0.092;2023-03-29T04:56:46;18.17;44.34
76785;SHT30;66893;44.316;0.092;2023-03-29T04:59:11;18.16;44.35
76785;SHT30;66893;44.316;0.092;2023-03-29T05:01:37;18.14;44.35
76785;SHT30;66893;44.316;0.092;2023-03-29T05:04:02;18.13;44.39
76785;SHT30;66893;44.316;0.092;2023-03-29T05:06:29;18.12;44.40
76785;SHT30;66893;44.316;0.092;2023-03-29T05:08:55;18.10;44.41
76785;SHT30;66893;44.316;0.092;2023-03-29T05:11:20;18.07;44.39
76785;SHT30;66893;44.316;0.092;2023-03-29T05:13:49;18.07;44.43
76785;SHT30;66893;44.316;0.092;2023-03-29T05:16:14;18.04;44.41
76785;SHT30;66893;44.316;0.092;2023-03-29T05:18:40;18.04;44.39
76785;SHT30;66893;44.316;0.092;2023-03-29T05:21:05;18.03;44.37
76785;SHT30;66893;44.316;0.092;2023-03-29T05:23:32;18.02;44.40
76785;SHT30;66893;44.316;0.092;2023-03-29T05:25:58;18.00;44.41
76785;SHT30;66893;44.316;0.092;2023-03-29T05:28:24;17.97;44.40
76785;SHT30;66893;44.316;0.092;2023-03-29T05:31:02;17.97;44.43
76785;SHT30;66893;44.316;0.092;2023-03-29T05:33:29;17.97;44.42
76785;SHT30;66893;44.316;0.092;2023-03-29T05:35:59;17.92;44.43
76785;SHT30;66893;44.316;0.092;2023-03-29T05:38:25;17.90;44.48
76785;SHT30;66893;44.316;0.092;2023-03-29T05:40:50;17.90;44.48
76785;SHT30;66893;44.316;0.092;2023-03-29T05:43:17;17.89;44.52
76785;SHT30;66893;44.316;0.092;2023-03-29T05:45:42;17.87;44.49
76785;SHT30;66893;44.316;0.092;2023-03-29T05:48:07;17.85;44.50
76785;SHT30;66893;44.316;0.092;2023-03-29T05:50:33;17.87;44.56
76785;SHT30;66893;44.316;0.092;2023-03-29T05:53:01;17.83;44.54
76785;SHT30;66893;44.316;0.092;2023-03-29T05:55:26;17.83;44.55
76785;SHT30;66893;44.316;0.092;2023-03-29T05:57:52;17.87;44.51
76785;SHT30;66893;44.316;0.092;2023-03-29T06:00:17;17.86;44.51
76785;SHT30;66893;44.316;0.092;2023-03-29T06:02:44;17.86;44.50
76785;SHT30;66893;44.316;0.092;2023-03-29T06:05:09;17.82;44.50
76785;SHT30;66893;44.316;0.092;2023-03-29T06:07:35;17.81;44.50
76785;SHT30;66893;44.316;0.092;2023-03-29T06:10:03;17.83;44.52
76785;SHT30;66893;44.316;0.092;2023-03-29T06:12:29;17.79;44.52
76785;SHT30;66893;44.316;0.092;2023-03-29T06:14:55;17.79;44.53
76785;SHT30;66893;44.316;0.092;2023-03-29T06:17:22;17.78;44.53
76785;SHT30;66893;44.316;0.092;2023-03-29T06:19:48;17.76;44.52
76785;SHT30;66893;44.316;0.092;2023-03-29T06:22:13;17.78;44.54
76785;SHT30;66893;44.316;0.092;2023-03-29T06:24:38;17.78;44.50
76785;SHT30;66893;44.316;0.092;2023-03-29T06:27:04;17.76;44.55
76785;SHT30;66893;44.316;0.092;2023-03-29T06:29:29;17.75;44.56
76785;SHT30;66893;44.316;0.092;2023-03-29T06:31:55;17.78;44.57
76785;SHT30;66893;44.316;0.092;2023-03-29T06:34:21;17.75;44.56
76785;SHT30;66893;44.316;0.092;2023-03-29T06:36:46;17.78;44.56
76785;SHT30;66893;44.316;0.092;2023-03-29T06:39:15;17.69;44.42
76785;SHT30;66893;44.316;0.092;2023-03-29T06:41:40;17.58;44.71
76785;SHT30;66893;44.316;0.092;2023-03-29T06:44:06;17.52;44.78
76785;SHT30;66893;44.316;0.092;2023-03-29T06:46:31;17.52;44.86
76785;SHT30;66893;44.316;0.092;2023-03-29T06:48:57;17.55;44.88
76785;SHT30;66893;44.316;0.092;2023-03-29T06:51:22;17.57;44.92
76785;SHT30;66893;44.316;0.092;2023-03-29T06:53:48;17.58;44.85
76785;SHT30;66893;44.316;0.092;2023-03-29T06:56:13;17.59;44.85
76785;SHT30;66893;44.316;0.092;2023-03-29T06:58:38;17.62;44.90
76785;SHT30;66893;44.316;0.092;2023-03-29T07:01:05;17.65;44.92
76785;SHT30;66893;44.316;0.092;2023-03-29T07:03:31;17.65;44.94
76785;SHT30;66893;44.316;0.092;2023-03-29T07:06:00;17.69;45.02
76785;SHT30;66893;44.316;0.092;2023-03-29T07:08:28;17.72;44.95
76785;SHT30;66893;44.316;0.092;2023-03-29T07:10:56;17.72;45.02
76785;SHT30;66893;44.316;0.092;2023-03-29T07:13:23;17.76;45.08
76785;SHT30;66893;44.316;0.092;2023-03-29T07:15:50;17.78;45.10
76785;SHT30;66893;44.316;0.092;2023-03-29T07:18:16;17.81;45.09
76785;SHT30;66893;44.316;0.092;2023-03-29T07:20:42;17.85;45.14
76785;SHT30;66893;44.316;0.092;2023-03-29T07:23:08;17.82;45.28
76785;SHT30;66893;44.316;0.092;2023-03-29T07:25:35;17.86;45.28
76785;SHT30;66893;44.316;0.092;2023-03-29T07:28:01;17.90;45.39
76785;SHT30;66893;44.316;0.092;2023-03-29T07:30:28;17.90;45.36
76785;SHT30;66893;44.316;0.092;2023-03-29T07:32:54;17.92;45.43
76785;SHT30;66893;44.316;0.092;2023-03-29T07:35:23;17.92;45.44
76785;SHT30;66893;44.316;0.092;2023-03-29T07:37:49;17.96;45.41
76785;SHT30;66893;44.316;0.092;2023-03-29T07:40:16;17.96;45.35
76785;SHT30;66893;44.316;0.092;2023-03-29T07:42:51;18.00;45.36
76785;SHT30;66893;44.316;0.092;2023-03-29T07:45:18;18.00;45.37
76785;SHT30;66893;44.316;0.092;2023-03-29T07:47:48;18.04;45.33
76785;SHT30;66893;44.316;0.092;2023-03-29T07:50:15;18.06;45.29
76785;SHT30;66893;44.316;0.092;2023-03-29T07:52:42;18.07;45.31
76785;SHT30;66893;44.316;0.092;2023-03-29T07:55:09;18.12;45.28
76785;SHT30;66893;44.316;0.092;2023-03-29T07:57:35;18.14;45.26
76785;SHT30;66893;44.316;0.092;2023-03-29T08:00:02;18.16;45.26
76785;SHT30;66893;44.316;0.092;2023-03-29T08:02:46;18.22;45.23
76785;SHT30;66893;44.316;0.092;2023-03-29T08:05:13;18.24;45.34
76785;SHT30;66893;44.316;0.092;2023-03-29T08:07:40;18.24;45.35
76785;SHT30;66893;44.316;0.092;2023-03-29T08:10:09;18.27;45.38
76785;SHT30;66893;44.316;0.092;2023-03-29T08:12:35;18.30;45.43
76785;SHT30;66893;44.316;0.092;2023-03-29T08:15:01;18.34;45.36
76785;SHT30;66893;44.316;0.092;2023-03-29T08:17:27;18.33;45.22
76785;SHT30;66893;44.316;0.092;2023-03-29T08:19:52;18.33;45.35
76785;SHT30;66893;44.316;0.092;2023-03-29T08:22:17;18.37;45.31
76785;SHT30;66893;44.316;0.092;2023-03-29T08:24:43;18.38;45.15
76785;SHT30;66893;44.316;0.092;2023-03-29T08:27:09;18.43;45.10
76785;SHT30;66893;44.316;0.092;2023-03-29T08:29:35;18.43;45.20
76785;SHT30;66893;44.316;0.092;2023-03-29T08:32:00;18.47;45.27
76785;SHT30;66893;44.316;0.092;2023-03-29T08:34:26;18.51;45.32
76785;SHT30;66893;44.316;0.092;2023-03-29T08:36:51;18.52;45.33
76785;SHT30;66893;44.316;0.092;2023-03-29T08:39:18;18.58;45.43
76785;SHT30;66893;44.316;0.092;2023-03-29T08:47:32;18.67;45.59
76785;SHT30;66893;44.316;0.092;2023-03-29T08:49:59;18.68;45.68
76785;SHT30;66893;44.316;0.092;2023-03-29T08:53:03;18.69;45.67
76785;SHT30;66893;44.316;0.092;2023-03-29T08:55:37;18.78;45.79
76785;SHT30;66893;44.316;0.092;2023-03-29T08:58:08;18.81;45.79
76785;SHT30;66893;44.316;0.092;2023-03-29T09:00:39;18.84;45.89
76785;SHT30;66893;44.316;0.092;2023-03-29T09:03:13;18.86;45.82
76785;SHT30;66893;44.316;0.092;2023-03-29T09:05:45;18.92;45.64
76785;SHT30;66893;44.316;0.092;2023-03-29T09:08:13;18.94;45.29
76785;SHT30;66893;44.316;0.092;2023-03-29T09:19:41;19.16;44.94
76785;SHT30;66893;44.316;0.092;2023-03-29T09:24:58;19.20;45.10
76785;SHT30;66893;44.316;0.092;2023-03-29T09:27:43;19.26;45.19
76785;SHT30;66893;44.316;0.092;2023-03-29T09:32:59;19.31;45.19
76785;SHT30;66893;44.316;0.092;2023-03-29T09:35:34;19.35;45.13
76785;SHT30;66893;44.316;0.092;2023-03-29T09:38:02;19.38;45.20
76785;SHT30;66893;44.316;0.092;2023-03-29T09:40:33;19.44;45.21
76785;SHT30;66893;44.316;0.092;2023-03-29T09:43:02;19.44;45.25
76785;SHT30;66893;44.316;0.092;2023-03-29T09:45:29;19.49;45.31
76785;SHT30;66893;44.316;0.092;2023-03-29T09:48:05;19.51;45.13
76785;SHT30;66893;44.316;0.092;2023-03-29T09:50:36;19.53;45.21
76785;SHT30;66893;44.316;0.092;2023-03-29T09:53:02;19.55;45.20
76785;SHT30;66893;44.316;0.092;2023-03-29T09:55:31;19.61;45.26
76785;SHT30;66893;44.316;0.092;2023-03-29T09:58:00;19.61;45.22
76785;SHT30;66893;44.316;0.092;2023-03-29T10:00:26;19.64;45.21
76785;SHT30;66893;44.316;0.092;2023-03-29T10:02:53;19.65;45.20
76785;SHT30;66893;44.316;0.092;2023-03-29T10:05:19;19.68;45.19
76785;SHT30;66893;44.316;0.092;2023-03-29T10:07:48;19.74;45.20
76785;SHT30;66893;44.316;0.092;2023-03-29T10:10:27;19.77;45.15
76785;SHT30;66893;44.316;0.092;2023-03-29T10:12:57;19.79;45.16
76785;SHT30;66893;44.316;0.092;2023-03-29T10:15:26;19.83;45.10
76785;SHT30;66893;44.316;0.092;2023-03-29T10:17:57;19.85;45.23
76785;SHT30;66893;44.316;0.092;2023-03-29T10:20:23;19.92;45.08
76785;SHT30;66893;44.316;0.092;2023-03-29T10:22:55;19.95;45.07
76785;SHT30;66893;44.316;0.092;2023-03-29T10:25:25;19.98;45.07
76785;SHT30;66893;44.316;0.092;2023-03-29T10:28:05;19.99;45.08
76785;SHT30;66893;44.316;0.092;2023-03-29T10:30:34;20.05;45.09
76785;SHT30;66893;44.316;0.092;2023-03-29T10:33:02;20.09;45.08
76785;SHT30;66893;44.316;0.092;2023-03-29T10:35:37;20.13;45.04
76785;SHT30;66893;44.316;0.092;2023-03-29T10:38:12;20.17;45.17
76785;SHT30;66893;44.316;0.092;2023-03-29T10:40:51;20.23;45.09
76785;SHT30;66893;44.316;0.092;2023-03-29T10:43:21;20.29;45.03
76785;SHT30;66893;44.316;0.092;2023-03-29T10:45:51;20.36;45.01
76785;SHT30;66893;44.316;0.092;2023-03-29T10:48:23;20.40;44.96
76785;SHT30;66893;44.316;0.092;2023-03-29T10:50:50;20.47;45.09
76785;SHT30;66893;44.316;0.092;2023-03-29T10:53:27;20.54;44.95
76785;SHT30;66893;44.316;0.092;2023-03-29T10:56:33;20.63;44.93
76785;SHT30;66893;44.316;0.092;2023-03-29T10:59:26;20.68;44.85
76785;SHT30;66893;44.316;0.092;2023-03-29T11:04:45;20.84;44.83
76785;SHT30;66893;44.316;0.092;2023-03-29T11:07:34;20.89;44.80
76785;SHT30;66893;44.316;0.092;2023-03-29T11:10:56;20.96;44.69
76785;SHT30;66893;44.316;0.092;2023-03-29T11:16:14;21.05;44.72
76785;SHT30;66893;44.316;0.092;2023-03-29T11:19:03;21.09;44.69
76785;SHT30;66893;44.316;0.092;2023-03-29T11:24:33;21.13;44.64
76785;SHT30;66893;44.316;0.092;2023-03-29T11:27:21;21.23;44.66
76785;SHT30;66893;44.316;0.092;2023-03-29T11:30:09;21.29;44.61
76785;SHT30;66893;44.316;0.092;2023-03-29T11:40:59;21.43;44.56
76785;SHT30;66893;44.316;0.092;2023-03-29T11:43:39;21.46;44.50
76785;SHT30;66893;44.316;0.092;2023-03-29T11:46:28;21.53;44.47
76785;SHT30;66893;44.316;0.092;2023-03-29T11:51:29;21.64;44.41
76785;SHT30;66893;44.316;0.092;2023-03-29T11:54:04;21.70;44.36
76785;SHT30;66893;44.316;0.092;2023-03-29T11:56:41;21.75;44.32
76785;SHT30;66893;44.316;0.092;2023-03-29T11:59:42;21.82;44.24
76785;SHT30;66893;44.316;0.092;2023-03-29T12:02:18;21.88;44.21
76785;SHT30;66893;44.316;0.092;2023-03-29T12:04:51;21.91;44.18
76785;SHT30;66893;44.316;0.092;2023-03-29T12:09:57;22.06;44.09
76785;SHT30;66893;44.316;0.092;2023-03-29T12:12:29;22.15;44.07
76785;SHT30;66893;44.316;0.092;2023-03-29T12:15:09;22.20;44.02
76785;SHT30;66893;44.316;0.092;2023-03-29T12:17:43;22.29;43.92
76785;SHT30;66893;44.316;0.092;2023-03-29T12:20:18;22.33;43.89
76785;SHT30;66893;44.316;0.092;2023-03-29T12:22:49;22.42;43.85
76785;SHT30;66893;44.316;0.092;2023-03-29T12:25:19;22.49;43.76
76785;SHT30;66893;44.316;0.092;2023-03-29T12:33:17;22.72;43.61
76785;SHT30;66893;44.316;0.092;2023-03-29T12:38:24;22.86;43.35
76785;SHT30;66893;44.316;0.092;2023-03-29T12:41:07;22.95;43.36
76785;SHT30;66893;44.316;0.092;2023-03-29T12:43:39;23.05;43.28
76785;SHT30;66893;44.316;0.092;2023-03-29T12:48:41;23.22;43.06
76785;SHT30;66893;44.316;0.092;2023-03-29T12:51:14;23.32;42.97
76785;SHT30;66893;44.316;0.092;2023-03-29T12:53:53;23.38;42.91
76785;SHT30;66893;44.316;0.092;2023-03-29T12:56:33;23.47;42.82
76785;SHT30;66893;44.316;0.092;2023-03-29T12:59:06;23.54;42.77
76785;SHT30;66893;44.316;0.092;2023-03-29T13:02:01;23.62;42.64
76785;SHT30;66893;44.316;0.092;2023-03-29T13:04:47;23.71;42.52
76785;SHT30;66893;44.316;0.092;2023-03-29T13:07:26;23.74;42.39
76785;SHT30;66893;44.316;0.092;2023-03-29T13:09:54;23.81;42.39
76785;SHT30;66893;44.316;0.092;2023-03-29T13:12:38;23.88;42.31
76785;SHT30;66893;44.316;0.092;2023-03-29T13:15:06;23.91;42.22
76785;SHT30;66893;44.316;0.092;2023-03-29T13:23:32;24.12;42.03
76785;SHT30;66893;44.316;0.092;2023-03-29T13:29:09;24.28;41.86
76785;SHT30;66893;44.316;0.092;2023-03-29T13:43:08;24.72;41.90
76785;SHT30;66893;44.316;0.092;2023-03-29T13:45:35;24.80;41.92
76785;SHT30;66893;44.316;0.092;2023-03-29T13:48:02;24.88;41.98
76785;SHT30;66893;44.316;0.092;2023-03-29T13:50:38;24.95;42.04
76785;SHT30;66893;44.316;0.092;2023-03-29T13:55:51;25.07;42.10
76785;SHT30;66893;44.316;0.092;2023-03-29T13:58:53;25.19;42.11
76785;SHT30;66893;44.316;0.092;2023-03-29T14:01:35;25.28;42.03
76785;SHT30;66893;44.316;0.092;2023-03-29T14:04:20;25.35;42.06
76785;SHT30;66893;44.316;0.092;2023-03-29T14:06:51;25.45;41.95
76785;SHT30;66893;44.316;0.092;2023-03-29T14:09:25;25.56;41.97
76785;SHT30;66893;44.316;0.092;2023-03-29T14:11:52;25.65;41.90
76785;SHT30;66893;44.316;0.092;2023-03-29T14:14:23;25.70;42.00
76785;SHT30;66893;44.316;0.092;2023-03-29T14:16:50;25.79;41.96
76785;SHT30;66893;44.316;0.092;2023-03-29T14:19:18;25.89;41.92
76785;SHT30;66893;44.316;0.092;2023-03-29T14:21:48;25.94;41.76
76785;SHT30;66893;44.316;0.092;2023-03-29T14:24:25;26.02;41.60
76785;SHT30;66893;44.316;0.092;2023-03-29T14:26:52;26.08;41.62
76785;SHT30;66893;44.316;0.092;2023-03-29T14:29:18;26.13;41.55
76785;SHT30;66893;44.316;0.092;2023-03-29T14:31:44;26.22;41.47
76785;SHT30;66893;44.316;0.092;2023-03-29T14:34:17;26.25;41.39
76785;SHT30;66893;44.316;0.092;2023-03-29T14:36:44;26.34;41.32
76785;SHT30;66893;44.316;0.092;2023-03-29T14:39:20;26.36;41.28
76785;SHT30;66893;44.316;0.092;2023-03-29T14:41:54;26.44;41.27
76785;SHT30;66893;44.316;0.092;2023-03-29T14:44:26;26.46;41.16
76785;SHT30;66893;44.316;0.092;2023-03-29T14:46:52;26.53;40.98
76785;SHT30;66893;44.316;0.092;2023-03-29T14:49:19;26.55;40.61
76785;SHT30;66893;44.316;0.092;2023-03-29T14:51:46;26.59;40.67
76785;SHT30;66893;44.316;0.092;2023-03-29T14:54:23;26.65;40.24
76785;SHT30;66893;44.316;0.092;2023-03-29T14:56:50;26.69;40.27
76785;SHT30;66893;44.316;0.092;2023-03-29T14:59:42;26.66;40.28
76785;SHT30;66893;44.316;0.092;2023-03-29T15:05:46;26.62;40.25
76785;SHT30;66893;44.316;0.092;2023-03-29T15:08:05;26.62;40.17
76785;SHT30;66893;44.316;0.092;2023-03-29T15:10:36;26.59;40.14
76785;SHT30;66893;44.316;0.092;2023-03-29T15:13:04;26.63;40.12
76785;SHT30;66893;44.316;0.092;2023-03-29T15:15:32;26.65;40.06
76785;SHT30;66893;44.316;0.092;2023-03-29T15:17:59;26.68;40.04
76785;SHT30;66893;44.316;0.092;2023-03-29T15:20:28;26.69;40.02
76785;SHT30;66893;44.316;0.092;2023-03-29T15:23:40;26.78;39.92
76785;SHT30;66893;44.316;0.092;2023-03-29T15:25:56;26.86;39.90
76785;SHT30;66893;44.316;0.092;2023-03-29T15:28:26;27.01;39.74
76785;SHT30;66893;44.316;0.092;2023-03-29T15:31:17;27.37;39.35
76785;SHT30;66893;44.316;0.092;2023-03-29T15:33:42;27.92;38.69
76785;SHT30;66893;44.316;0.092;2023-03-29T15:36:09;28.33;38.06
76785;SHT30;66893;44.316;0.092;2023-03-29T15:38:37;28.79;37.53
76785;SHT30;66893;44.316;0.092;2023-03-29T15:41:03;28.98;37.16
76785;SHT30;66893;44.316;0.092;2023-03-29T15:43:29;29.07;36.88
76785;SHT30;66893;44.316;0.092;2023-03-29T15:45:55;29.62;36.51
76785;SHT30;66893;44.316;0.092;2023-03-29T15:48:24;30.27;35.97
76785;SHT30;66893;44.316;0.092;2023-03-29T15:50:50;30.78;35.42
76785;SHT30;66893;44.316;0.092;2023-03-29T15:53:16;31.22;34.92
76785;SHT30;66893;44.316;0.092;2023-03-29T15:55:46;31.64;34.49
76785;SHT30;66893;44.316;0.092;2023-03-29T15:58:14;32.13;34.05
76785;SHT30;66893;44.316;0.092;2023-03-29T16:00:49;32.57;33.56
76785;SHT30;66893;44.316;0.092;2023-03-29T16:03:15;32.78;33.15
76785;SHT30;66893;44.316;0.092;2023-03-29T16:05:44;32.66;33.12
76785;SHT30;66893;44.316;0.092;2023-03-29T16:08:11;32.41;33.12
76785;SHT30;66893;44.316;0.092;2023-03-29T16:10:37;32.13;33.17
76785;SHT30;66893;44.316;0.092;2023-03-29T16:13:02;31.81;33.43
76785;SHT30;66893;44.316;0.092;2023-03-29T16:15:29;31.50;33.53
76785;SHT30;66893;44.316;0.092;2023-03-29T16:17:56;31.18;33.72
76785;SHT30;66893;44.316;0.092;2023-03-29T16:20:21;30.93;33.92
76785;SHT30;66893;44.316;0.092;2023-03-29T16:22:47;30.88;33.99
76785;SHT30;66893;44.316;0.092;2023-03-29T16:25:15;30.92;33.93
76785;SHT30;66893;44.316;0.092;2023-03-29T16:27:43;30.81;33.97
76785;SHT30;66893;44.316;0.092;2023-03-29T16:30:09;30.72;33.98
76785;SHT30;66893;44.316;0.092;2023-03-29T16:32:35;30.58;33.99
76785;SHT30;66893;44.316;0.092;2023-03-29T16:35:04;30.38;34.15
76785;SHT30;66893;44.316;0.092;2023-03-29T16:37:29;30.36;34.20
76785;SHT30;66893;44.316;0.092;2023-03-29T16:39:56;30.48;34.17
76785;SHT30;66893;44.316;0.092;2023-03-29T16:42:22;30.40;34.06
76785;SHT30;66893;44.316;0.092;2023-03-29T16:44:47;30.20;34.11
76785;SHT30;66893;44.316;0.092;2023-03-29T16:47:13;29.96;34.32
76785;SHT30;66893;44.316;0.092;2023-03-29T16:49:38;29.75;34.50
76785;SHT30;66893;44.316;0.092;2023-03-29T16:52:04;29.54;34.50
76785;SHT30;66893;44.316;0.092;2023-03-29T16:54:29;29.27;34.73
76785;SHT30;66893;44.316;0.092;2023-03-29T16:56:56;29.04;34.93
76785;SHT30;66893;44.316;0.092;2023-03-29T16:59:22;28.88;35.06
76785;SHT30;66893;44.316;0.092;2023-03-29T17:01:47;28.80;35.24
76785;SHT30;66893;44.316;0.092;2023-03-29T17:04:13;28.78;35.24
76785;SHT30;66893;44.316;0.092;2023-03-29T17:06:38;28.76;35.25
76785;SHT30;66893;44.316;0.092;2023-03-29T17:09:04;28.78;35.19
76785;SHT30;66893;44.316;0.092;2023-03-29T17:11:30;28.75;35.23
76785;SHT30;66893;44.316;0.092;2023-03-29T17:13:55;28.61;35.26
76785;SHT30;66893;44.316;0.092;2023-03-29T17:16:21;28.38;35.35
76785;SHT30;66893;44.316;0.092;2023-03-29T17:18:47;28.13;35.49
76785;SHT30;66893;44.316;0.092;2023-03-29T17:21:12;27.83;35.67
76785;SHT30;66893;44.316;0.092;2023-03-29T17:23:37;27.61;35.84
76785;SHT30;66893;44.316;0.092;2023-03-29T17:26:04;27.37;36.01
76785;SHT30;66893;44.316;0.092;2023-03-29T17:28:31;27.12;36.22
76785;SHT30;66893;44.316;0.092;2023-03-29T17:30:56;26.93;36.39
76785;SHT30;66893;44.316;0.092;2023-03-29T17:33:22;26.73;36.53